Time;durP1;ratioP1;P1;durP2;ratioP2;P2;SDS_P1;SDS_P2;PMS_P1;PMS_P2;Temp;Humidity;BMP_temperature;BMP_pressure;BME280_temperature;BME280_humidity;BME280_pressure;Samples;Min_cycle;Max_cycle;Signal;HPM_P1;HPM_P2
2023/01/02 00:01:20;;;;;;;;;;;16.80;98.50;;;;;;5060245;28;20269;-89
2023/01/02 00:03:45;;;;;;;;;;;16.80;98.50;;;;;;5060251;28;19916;-89
2023/01/02 00:06:11;;;;;;;;;;;16.70;98.40;;;;;;5060767;28;19920;-89
2023/01/02 00:08:37;;;;;;;;;;;16.80;98.50;;;;;;5059102;28;19912;-89
2023/01/02 00:11:03;;;;;;;;;;;16.80;98.50;;;;;;5077282;28;20335;-88
2023/01/02 00:13:28;;;;;;;;;;;16.80;98.50;;;;;;5060014;28;19952;-88
2023/01/02 00:15:54;;;;;;;;;;;16.80;98.40;;;;;;5059514;28;19908;-89
2023/01/02 00:18:19;;;;;;;;;;;16.80;98.40;;;;;;5059379;28;19908;-88
2023/01/02 00:20:45;;;;;;;;;;;16.80;98.40;;;;;;5077047;28;20443;-88
2023/01/02 00:23:11;;;;;;;;;;;16.80;98.40;;;;;;5076948;28;20447;-89
2023/01/02 00:25:36;;;;;;;;;;;16.80;98.40;;;;;;5059217;28;20294;-89
2023/01/02 00:28:02;;;;;;;;;;;16.80;98.40;;;;;;5060217;28;20014;-89
2023/01/02 00:30:28;;;;;;;;;;;16.80;98.40;;;;;;5077505;28;20003;-89
2023/01/02 00:32:53;;;;;;;;;;;16.80;98.40;;;;;;5059936;28;19923;-89
2023/01/02 00:35:19;;;;;;;;;;;16.80;98.40;;;;;;5059930;28;20245;-89
2023/01/02 00:37:44;;;;;;;;;;;16.80;98.40;;;;;;5058816;28;19908;-89
2023/01/02 00:40:14;;;;;;;;;;;16.80;98.40;;;;;;5059110;28;19948;-89
2023/01/02 00:42:40;;;;;;;;;;;16.80;98.40;;;;;;5075269;28;19913;-89
2023/01/02 00:45:06;;;;;;;;;;;16.80;98.40;;;;;;5075155;28;19948;-90
2023/01/02 00:47:31;;;;;;;;;;;16.80;98.40;;;;;;5058296;28;19917;-89
2023/01/02 00:49:57;;;;;;;;;;;16.80;98.40;;;;;;5057488;28;19985;-89
2023/01/02 00:52:22;;;;;;;;;;;16.80;98.40;;;;;;5062018;28;19957;-89
2023/01/02 00:54:48;;;;;;;;;;;16.80;98.40;;;;;;5062626;28;20010;-89
2023/01/02 00:57:14;;;;;;;;;;;16.80;98.40;;;;;;5057059;28;19978;-90
2023/01/02 00:59:39;;;;;;;;;;;16.80;98.40;;;;;;5058300;28;19954;-90
2023/01/02 01:02:05;;;;;;;;;;;16.80;98.40;;;;;;5058261;28;19916;-90
2023/01/02 01:04:34;;;;;;;;;;;16.80;98.40;;;;;;5059395;28;20309;-90
2023/01/02 01:07:00;;;;;;;;;;;16.80;98.40;;;;;;5059186;28;19909;-90
2023/01/02 01:09:26;;;;;;;;;;;16.80;98.40;;;;;;5075964;28;19916;-91
2023/01/02 01:11:51;;;;;;;;;;;16.80;98.40;;;;;;5056049;28;19982;-91
2023/01/02 01:14:17;;;;;;;;;;;16.80;98.40;;;;;;5057506;28;19912;-90
2023/01/02 01:16:43;;;;;;;;;;;16.80;98.40;;;;;;5058013;28;20240;-90
2023/01/02 01:19:09;;;;;;;;;;;16.70;98.40;;;;;;5058419;28;19908;-90
2023/01/02 01:21:34;;;;;;;;;;;16.70;98.40;;;;;;5057348;28;19909;-90
2023/01/02 01:24:00;;;;;;;;;;;16.80;98.40;;;;;;5074668;28;19919;-90
2023/01/02 01:26:26;;;;;;;;;;;16.80;98.40;;;;;;5058759;28;19909;-90
2023/01/02 01:28:52;;;;;;;;;;;16.70;98.40;;;;;;5057713;28;19909;-90
2023/01/02 01:31:18;;;;;;;;;;;16.70;98.40;;;;;;5058236;28;19931;-90
2023/01/02 01:33:43;;;;;;;;;;;16.80;98.40;;;;;;5058898;28;19909;-90
2023/01/02 01:36:13;;;;;;;;;;;16.70;98.40;;;;;;5057672;28;19908;-90
2023/01/02 01:38:39;;;;;;;;;;;16.70;98.40;;;;;;5058466;28;19909;-89
2023/01/02 01:41:05;;;;;;;;;;;16.80;98.40;;;;;;5075490;28;19919;-89
2023/01/02 01:43:34;;;;;;;;;;;16.70;98.40;;;;;;5060450;28;19985;-89
2023/01/02 01:45:59;;;;;;;;;;;16.80;98.40;;;;;;5060763;28;19930;-90
2023/01/02 01:48:25;;;;;;;;;;;16.80;98.40;;;;;;5059547;28;19990;-90
2023/01/02 01:50:51;;;;;;;;;;;16.70;98.40;;;;;;5057325;28;19909;-89
2023/01/02 01:53:18;;;;;;;;;;;16.80;98.40;;;;;;5056965;28;20062;-90
2023/01/02 01:55:47;;;;;;;;;;;16.80;98.50;;;;;;5057360;28;20082;-89
2023/01/02 01:58:16;;;;;;;;;;;16.70;98.40;;;;;;5057521;28;19908;-90
2023/01/02 02:00:42;;;;;;;;;;;16.70;98.40;;;;;;5075778;28;19908;-90
2023/01/02 02:03:10;;;;;;;;;;;16.70;98.40;;;;;;5058675;28;19991;-90
2023/01/02 02:05:36;;;;;;;;;;;16.70;98.40;;;;;;5060069;28;19915;-90
2023/01/02 02:08:20;;;;;;;;;;;16.70;98.40;;;;;;5059796;28;20086;-89
2023/01/02 02:10:46;;;;;;;;;;;16.80;98.50;;;;;;5059759;28;19966;-90
2023/01/02 02:13:12;;;;;;;;;;;16.80;98.50;;;;;;5058870;28;19912;-90
2023/01/02 02:15:59;;;;;;;;;;;16.70;98.50;;;;;;5058938;28;20168;-90
2023/01/02 02:18:32;;;;;;;;;;;16.70;98.50;;;;;;5059430;28;20298;-90
2023/01/02 02:21:07;;;;;;;;;;;16.70;98.50;;;;;;5059401;28;19987;-90
2023/01/02 02:24:02;;;;;;;;;;;16.80;98.50;;;;;;5057840;28;19909;-89
2023/01/02 02:26:48;;;;;;;;;;;16.80;98.50;;;;;;5005128;28;20188;-90
2023/01/02 02:29:28;;;;;;;;;;;16.70;98.50;;;;;;5038432;28;19908;-90
2023/01/02 02:32:01;;;;;;;;;;;16.70;98.50;;;;;;5076706;28;20163;-90
2023/01/02 02:34:48;;;;;;;;;;;16.80;98.50;;;;;;5059148;28;19982;-89
2023/01/02 02:37:30;;;;;;;;;;;16.70;98.50;;;;;;5058161;28;19905;-90
2023/01/02 02:40:18;;;;;;;;;;;16.70;98.50;;;;;;5058213;28;20293;-89
2023/01/02 02:42:46;;;;;;;;;;;16.70;98.50;;;;;;5057136;28;20015;-90
2023/01/02 02:45:12;;;;;;;;;;;16.70;98.50;;;;;;5057099;28;19916;-89
2023/01/02 02:47:43;;;;;;;;;;;16.70;98.60;;;;;;5058040;28;19961;-89
2023/01/02 02:50:15;;;;;;;;;;;16.80;98.60;;;;;;5056862;28;19915;-89
2023/01/02 02:52:46;;;;;;;;;;;16.70;98.60;;;;;;5056912;28;20330;-89
2023/01/02 02:55:18;;;;;;;;;;;16.80;98.60;;;;;;5057840;28;19913;-89
2023/01/02 02:57:44;;;;;;;;;;;16.70;98.60;;;;;;5057982;28;19987;-89
2023/01/02 03:00:12;;;;;;;;;;;16.70;98.60;;;;;;5057267;28;20258;-89
2023/01/02 03:02:38;;;;;;;;;;;16.70;98.60;;;;;;5073317;28;20087;-90
2023/01/02 03:05:06;;;;;;;;;;;16.70;98.60;;;;;;5075172;28;20179;-90
2023/01/02 03:07:48;;;;;;;;;;;16.70;98.60;;;;;;5056807;28;19908;-90
2023/01/02 03:10:27;;;;;;;;;;;16.70;98.60;;;;;;5057416;28;20419;-90
2023/01/02 03:13:11;;;;;;;;;;;16.70;98.60;;;;;;5056386;28;19920;-89
2023/01/02 03:15:49;;;;;;;;;;;16.70;98.70;;;;;;5058210;28;19912;-90
2023/01/02 03:18:15;;;;;;;;;;;16.70;98.70;;;;;;5056657;28;19998;-90
2023/01/02 03:20:43;;;;;;;;;;;16.70;98.70;;;;;;5075498;28;19944;-91
2023/01/02 03:23:15;;;;;;;;;;;16.70;98.70;;;;;;5056494;28;19908;-90
2023/01/02 03:25:42;;;;;;;;;;;16.70;98.70;;;;;;5056608;28;20286;-90
2023/01/02 03:28:08;;;;;;;;;;;16.70;98.70;;;;;;5057441;28;20006;-89
2023/01/02 03:30:36;;;;;;;;;;;16.70;98.70;;;;;;5057230;28;19919;-89
2023/01/02 03:33:12;;;;;;;;;;;16.70;98.70;;;;;;5074779;28;20318;-89
2023/01/02 03:35:43;;;;;;;;;;;16.70;98.80;;;;;;5057284;28;19908;-89
2023/01/02 03:38:13;;;;;;;;;;;16.70;98.80;;;;;;5057693;28;20203;-90
2023/01/02 03:40:44;;;;;;;;;;;16.70;98.80;;;;;;5057803;28;19936;-89
2023/01/02 03:43:16;;;;;;;;;;;16.60;98.80;;;;;;5056692;28;19916;-91
2023/01/02 03:45:45;;;;;;;;;;;16.70;98.90;;;;;;5074864;28;19908;-91
2023/01/02 03:48:29;;;;;;;;;;;16.60;98.90;;;;;;5057115;28;19916;-91
2023/01/02 03:50:56;;;;;;;;;;;16.60;98.90;;;;;;5057224;28;19948;-91
2023/01/02 03:53:22;;;;;;;;;;;16.60;98.90;;;;;;5056128;28;19979;-90
2023/01/02 03:56:10;;;;;;;;;;;16.60;98.90;;;;;;5056928;28;19908;-91
2023/01/02 03:58:48;;;;;;;;;;;16.60;99.00;;;;;;5056661;28;20164;-90
2023/01/02 04:01:27;;;;;;;;;;;16.70;99.00;;;;;;5056502;28;19977;-90
2023/01/02 04:03:59;;;;;;;;;;;16.80;98.50;;;;;;5055322;28;19916;-90
2023/01/02 04:06:29;;;;;;;;;;;17.20;97.60;;;;;;5055588;28;19909;-90
2023/01/02 04:09:06;;;;;;;;;;;17.70;96.40;;;;;;5054865;28;19908;-90
2023/01/02 04:11:33;;;;;;;;;;;18.20;94.90;;;;;;5056249;28;20237;-90
2023/01/02 04:14:00;;;;;;;;;;;18.60;93.40;;;;;;5055767;28;19995;-91
2023/01/02 04:16:29;;;;;;;;;;;18.90;92.40;;;;;;5064362;28;19967;-91
2023/01/02 04:18:57;;;;;;;;;;;19.10;91.60;;;;;;5072378;28;20003;-90
2023/01/02 04:21:25;;;;;;;;;;;19.10;91.20;;;;;;5053255;28;19909;-91
2023/01/02 04:24:17;;;;;;;;;;;19.20;90.90;;;;;;5053847;28;19958;-91
2023/01/02 04:26:46;;;;;;;;;;;19.20;90.80;;;;;;5053630;28;19940;-91
2023/01/02 04:29:11;;;;;;;;;;;19.20;90.70;;;;;;5058995;28;19915;-91
2023/01/02 04:31:37;;;;;;;;;;;19.10;90.80;;;;;;5059938;28;19916;-91
2023/01/02 04:34:04;;;;;;;;;;;19.00;91.00;;;;;;5059067;28;20014;-91
2023/01/02 04:36:29;;;;;;;;;;;18.90;91.30;;;;;;5057978;28;19908;-90
2023/01/02 04:38:55;;;;;;;;;;;18.80;91.60;;;;;;5057048;28;19974;-91
2023/01/02 04:41:28;;;;;;;;;;;18.70;91.90;;;;;;5056555;28;20111;-90
2023/01/02 04:43:53;;;;;;;;;;;18.60;92.30;;;;;;5074348;28;20382;-90
2023/01/02 04:46:19;;;;;;;;;;;18.50;92.70;;;;;;5058137;28;19908;-91
2023/01/02 04:48:45;;;;;;;;;;;18.40;93.00;;;;;;5057637;28;20167;-90
2023/01/02 04:51:11;;;;;;;;;;;18.30;93.30;;;;;;5058510;28;19965;-89
2023/01/02 04:53:36;;;;;;;;;;;18.20;93.60;;;;;;5059174;28;20253;-90
2023/01/02 04:56:02;;;;;;;;;;;18.10;94.00;;;;;;5059854;28;20037;-90
2023/01/02 04:58:28;;;;;;;;;;;18.00;94.30;;;;;;5059614;28;20178;-90
2023/01/02 05:00:53;;;;;;;;;;;17.90;94.70;;;;;;5056897;28;20177;-89
2023/01/02 05:03:19;;;;;;;;;;;17.80;94.90;;;;;;5074500;28;19967;-91
2023/01/02 05:05:45;;;;;;;;;;;17.70;95.20;;;;;;5057438;28;19981;-90
2023/01/02 05:08:10;;;;;;;;;;;17.60;95.50;;;;;;5057631;28;19973;-91
2023/01/02 05:10:36;;;;;;;;;;;17.50;95.70;;;;;;5074995;28;19908;-90
2023/01/02 05:13:02;;;;;;;;;;;17.50;95.90;;;;;;5057172;28;19936;-90
2023/01/02 05:15:27;;;;;;;;;;;17.40;96.10;;;;;;5057307;28;20261;-90
2023/01/02 05:17:53;;;;;;;;;;;17.30;96.30;;;;;;5074471;28;20227;-90
2023/01/02 05:20:18;;;;;;;;;;;17.30;96.50;;;;;;5075318;28;20223;-90
2023/01/02 05:25:32;;;;;;;;;;;17.20;96.80;;;;;;5074547;28;19914;-90
2023/01/02 05:27:57;;;;;;;;;;;17.20;96.90;;;;;;5057177;28;20194;-90
2023/01/02 05:30:23;;;;;;;;;;;17.10;97.00;;;;;;5057309;28;20270;-90
2023/01/02 05:32:49;;;;;;;;;;;17.10;97.20;;;;;;5057162;28;20309;-90
2023/01/02 05:35:14;;;;;;;;;;;17.10;97.30;;;;;;5056547;28;20210;-90
2023/01/02 05:37:40;;;;;;;;;;;17.10;97.40;;;;;;5074040;28;19975;-90
2023/01/02 05:40:06;;;;;;;;;;;17.00;97.50;;;;;;5058281;28;19912;-90
2023/01/02 05:42:32;;;;;;;;;;;17.00;97.60;;;;;;5074898;28;19924;-90
2023/01/02 05:44:57;;;;;;;;;;;17.00;97.70;;;;;;5073930;28;19912;-90
2023/01/02 05:47:23;;;;;;;;;;;16.90;97.80;;;;;;5057386;28;19919;-91
2023/01/02 05:49:48;;;;;;;;;;;16.90;97.90;;;;;;5056822;28;19909;-90
2023/01/02 05:52:14;;;;;;;;;;;16.90;97.90;;;;;;5073348;28;20256;-90
2023/01/02 05:54:39;;;;;;;;;;;16.90;98.00;;;;;;5057326;28;19908;-90
2023/01/02 05:57:05;;;;;;;;;;;16.90;98.00;;;;;;5055083;28;19915;-90
2023/01/02 05:59:31;;;;;;;;;;;16.90;98.00;;;;;;5055955;28;19908;-90
2023/01/02 06:01:56;;;;;;;;;;;16.90;98.00;;;;;;5056580;28;20002;-89
2023/01/02 06:04:22;;;;;;;;;;;16.90;98.00;;;;;;5055434;28;20011;-89
2023/01/02 06:06:48;;;;;;;;;;;17.00;97.90;;;;;;5053918;28;19999;-90
2023/01/02 06:09:14;;;;;;;;;;;17.00;97.80;;;;;;5054413;28;20413;-90
2023/01/02 06:11:40;;;;;;;;;;;17.10;97.70;;;;;;5052522;28;20166;-90
2023/01/02 06:14:05;;;;;;;;;;;17.10;97.50;;;;;;5052600;28;20265;-89
2023/01/02 06:16:31;;;;;;;;;;;17.20;97.20;;;;;;5053424;28;19909;-89
2023/01/02 06:18:57;;;;;;;;;;;17.30;96.90;;;;;;5073050;28;19916;-89
2023/01/02 06:21:22;;;;;;;;;;;17.40;96.70;;;;;;5072353;28;19939;-90
2023/01/02 06:23:52;;;;;;;;;;;17.50;96.40;;;;;;5054098;28;20008;-89
2023/01/02 06:26:18;;;;;;;;;;;17.60;96.20;;;;;;5053925;28;20132;-89
2023/01/02 06:28:44;;;;;;;;;;;17.60;96.10;;;;;;5055322;28;20031;-89
2023/01/02 06:31:14;;;;;;;;;;;17.60;96.20;;;;;;5072102;28;20332;-89
2023/01/02 06:33:40;;;;;;;;;;;17.70;95.80;;;;;;5053033;28;19918;-89
2023/01/02 06:36:08;;;;;;;;;;;17.70;95.70;;;;;;5051671;28;19908;-89
2023/01/02 06:38:33;;;;;;;;;;;17.60;95.70;;;;;;5052597;28;19916;-89
2023/01/02 06:40:59;;;;;;;;;;;17.60;95.80;;;;;;5051708;28;19909;-89
2023/01/02 06:43:25;;;;;;;;;;;17.60;95.80;;;;;;5052184;28;20146;-89
2023/01/02 06:45:51;;;;;;;;;;;17.60;95.90;;;;;;5053302;28;20006;-89
2023/01/02 06:48:17;;;;;;;;;;;17.50;96.00;;;;;;5054309;28;19988;-89
2023/01/02 06:50:43;;;;;;;;;;;17.50;96.10;;;;;;5052072;28;20178;-89
2023/01/02 06:53:10;;;;;;;;;;;17.50;96.30;;;;;;5064273;28;19920;-90
2023/01/02 06:55:35;;;;;;;;;;;17.40;96.40;;;;;;5051911;28;19908;-89
2023/01/02 06:58:01;;;;;;;;;;;17.30;96.50;;;;;;5052995;28;20182;-89
2023/01/02 07:00:27;;;;;;;;;;;17.30;96.70;;;;;;5071274;28;19908;-90
2023/01/02 07:02:52;;;;;;;;;;;17.20;96.80;;;;;;5053247;28;20182;-89
2023/01/02 07:05:18;;;;;;;;;;;17.20;96.90;;;;;;5052984;28;20016;-89
2023/01/02 07:07:43;;;;;;;;;;;17.20;97.00;;;;;;5051131;28;20019;-89
2023/01/02 07:10:09;;;;;;;;;;;17.10;97.10;;;;;;5052452;28;19909;-89
2023/01/02 07:12:36;;;;;;;;;;;17.10;97.20;;;;;;5039461;28;20370;-90
2023/01/02 07:15:02;;;;;;;;;;;17.10;97.30;;;;;;5037494;28;20328;-89
2023/01/02 07:17:41;;;;;;;;;;;17.00;97.40;;;;;;5040245;28;20303;-89
2023/01/02 07:20:07;;;;;;;;;;;17.00;97.40;;;;;;5067390;28;19974;-89
2023/01/02 07:22:33;;;;;;;;;;;17.00;97.60;;;;;;5039441;28;20190;-89
2023/01/02 07:25:00;;;;;;;;;;;16.90;97.60;;;;;;5049844;28;20343;-89
2023/01/02 07:27:29;;;;;;;;;;;16.90;97.70;;;;;;5037549;28;19919;-89
2023/01/02 07:29:54;;;;;;;;;;;16.90;98.00;;;;;;5050613;28;19908;-89
2023/01/02 07:32:21;;;;;;;;;;;16.90;97.90;;;;;;5037487;28;19912;-89
2023/01/02 07:34:47;;;;;;;;;;;16.90;97.90;;;;;;5051563;28;19959;-89
2023/01/02 07:37:13;;;;;;;;;;;16.90;98.00;;;;;;5053299;28;19940;-89
2023/01/02 07:39:38;;;;;;;;;;;16.90;98.00;;;;;;5041019;28;20046;-89
2023/01/02 07:42:04;;;;;;;;;;;16.90;98.00;;;;;;5051655;28;19908;-89
2023/01/02 07:44:30;;;;;;;;;;;16.80;97.90;;;;;;5055270;28;20249;-90
2023/01/02 07:46:55;;;;;;;;;;;16.90;97.90;;;;;;5054615;28;19920;-90
2023/01/02 07:49:21;;;;;;;;;;;16.90;97.90;;;;;;5037399;28;19919;-90
2023/01/02 07:51:47;;;;;;;;;;;16.90;97.90;;;;;;5070563;28;20217;-90
2023/01/02 07:54:12;;;;;;;;;;;17.00;97.70;;;;;;5032427;28;19908;-89
2023/01/02 07:56:38;;;;;;;;;;;17.00;97.60;;;;;;5051538;28;19908;-89
2023/01/02 07:59:03;;;;;;;;;;;17.10;97.40;;;;;;5031343;28;20214;-89
2023/01/02 08:01:29;;;;;;;;;;;17.20;97.20;;;;;;5051287;28;19908;-89
2023/01/02 08:03:55;;;;;;;;;;;17.30;96.90;;;;;;5036317;28;19916;-89
2023/01/02 08:06:20;;;;;;;;;;;17.40;96.70;;;;;;5055677;28;19908;-89
2023/01/02 08:08:47;;;;;;;;;;;17.50;96.50;;;;;;5043659;28;20015;-89
2023/01/02 08:11:17;;;;;;;;;;;17.50;96.20;;;;;;5075298;28;19908;-89
2023/01/02 08:13:43;;;;;;;;;;;17.60;96.10;;;;;;5058726;28;19915;-89
2023/01/02 08:16:10;;;;;;;;;;;17.60;96.00;;;;;;5057454;28;19913;-89
2023/01/02 08:18:36;;;;;;;;;;;17.60;95.90;;;;;;5041851;28;19997;-89
2023/01/02 08:21:02;;;;;;;;;;;17.60;96.10;;;;;;5056529;28;19909;-89
2023/01/02 08:23:28;;;;;;;;;;;17.50;96.20;;;;;;5041786;28;19913;-89
2023/01/02 08:26:01;;;;;;;;;;;17.50;96.40;;;;;;5051947;28;20075;-90
2023/01/02 08:28:27;;;;;;;;;;;17.40;96.60;;;;;;5048809;28;20029;-89
2023/01/02 08:30:55;;;;;;;;;;;17.40;96.80;;;;;;5052606;28;20079;-89
2023/01/02 08:33:21;;;;;;;;;;;17.40;96.80;;;;;;5044311;28;20067;-89
2023/01/02 08:35:47;;;;;;;;;;;17.30;96.90;;;;;;5049761;28;19959;-90
2023/01/02 08:38:12;;;;;;;;;;;17.30;97.00;;;;;;5049375;28;19952;-89
2023/01/02 08:40:39;;;;;;;;;;;17.30;97.20;;;;;;5050810;28;19923;-90
2023/01/02 08:43:06;;;;;;;;;;;17.20;97.30;;;;;;5049484;28;20060;-91
2023/01/02 08:45:34;;;;;;;;;;;17.10;97.40;;;;;;5058989;28;20122;-91
2023/01/02 08:47:59;;;;;;;;;;;17.10;97.60;;;;;;5054424;28;19920;-91
2023/01/02 08:50:28;;;;;;;;;;;17.10;97.70;;;;;;5049239;28;19908;-91
2023/01/02 08:52:54;;;;;;;;;;;17.00;97.80;;;;;;5051415;28;19912;-90
2023/01/02 08:55:20;;;;;;;;;;;17.00;97.90;;;;;;5040032;28;19908;-90
2023/01/02 08:57:45;;;;;;;;;;;17.00;98.10;;;;;;5048470;28;19994;-91
2023/01/02 09:00:11;;;;;;;;;;;17.00;98.10;;;;;;5042544;28;19919;-89
2023/01/02 09:02:37;;;;;;;;;;;16.90;98.20;;;;;;5052881;28;19983;-91
2023/01/02 09:05:03;;;;;;;;;;;16.90;98.30;;;;;;5054232;28;20302;-90
2023/01/02 09:07:31;;;;;;;;;;;16.90;98.30;;;;;;5054050;28;20122;-90
2023/01/02 09:09:57;;;;;;;;;;;16.90;98.40;;;;;;5053726;28;19951;-90
2023/01/02 09:12:23;;;;;;;;;;;16.90;98.50;;;;;;5051157;28;19913;-90
2023/01/02 09:14:48;;;;;;;;;;;16.90;98.60;;;;;;5049373;28;19912;-90
2023/01/02 09:17:14;;;;;;;;;;;16.90;98.70;;;;;;5052962;28;19915;-90
2023/01/02 09:19:41;;;;;;;;;;;16.90;98.80;;;;;;5052947;28;19920;-90
2023/01/02 09:22:07;;;;;;;;;;;16.80;98.80;;;;;;5054228;28;19951;-90
2023/01/02 09:24:33;;;;;;;;;;;16.80;98.90;;;;;;5055298;28;19920;-90
2023/01/02 09:26:58;;;;;;;;;;;16.80;99.00;;;;;;5050987;28;19908;-90
2023/01/02 09:29:24;;;;;;;;;;;16.70;99.10;;;;;;5052510;28;19909;-90
2023/01/02 09:31:50;;;;;;;;;;;16.70;99.20;;;;;;5052582;28;19980;-90
2023/01/02 09:34:15;;;;;;;;;;;16.70;99.20;;;;;;5027211;28;19958;-91
2023/01/02 09:36:41;;;;;;;;;;;16.70;99.30;;;;;;5049130;28;19908;-90
2023/01/02 09:39:06;;;;;;;;;;;16.80;99.40;;;;;;5051835;28;20197;-90
2023/01/02 09:41:37;;;;;;;;;;;16.80;99.30;;;;;;5050853;28;19915;-90
2023/01/02 09:44:02;;;;;;;;;;;16.90;99.30;;;;;;5069632;28;20174;-90
2023/01/02 09:46:38;;;;;;;;;;;16.90;99.20;;;;;;5071895;28;19948;-90
2023/01/02 09:49:04;;;;;;;;;;;17.00;99.10;;;;;;5052944;28;19999;-90
2023/01/02 09:51:30;;;;;;;;;;;17.00;98.90;;;;;;5052226;28;20097;-89
2023/01/02 09:53:55;;;;;;;;;;;17.10;98.70;;;;;;5051923;28;20309;-90
2023/01/02 09:56:31;;;;;;;;;;;17.20;98.50;;;;;;5050390;28;19908;-90
2023/01/02 09:59:05;;;;;;;;;;;17.30;98.40;;;;;;5054365;28;19908;-90
2023/01/02 10:01:31;;;;;;;;;;;17.30;98.20;;;;;;5053738;28;19924;-90
2023/01/02 10:04:19;;;;;;;;;;;17.40;98.10;;;;;;5053446;28;19928;-90
2023/01/02 10:07:03;;;;;;;;;;;17.40;98.10;;;;;;5049788;28;19908;-90
2023/01/02 10:09:41;;;;;;;;;;;17.40;98.10;;;;;;5048950;28;19909;-90
2023/01/02 10:12:23;;;;;;;;;;;17.40;98.10;;;;;;5050545;28;19920;-90
2023/01/02 10:14:51;;;;;;;;;;;17.30;98.20;;;;;;5051580;28;19909;-90
2023/01/02 10:17:18;;;;;;;;;;;17.30;98.30;;;;;;5052345;28;19908;-90
2023/01/02 10:19:59;;;;;;;;;;;17.30;98.30;;;;;;5049705;28;19967;-90
2023/01/02 10:22:29;;;;;;;;;;;17.30;98.40;;;;;;5049546;28;20040;-90
2023/01/02 10:25:02;;;;;;;;;;;17.20;98.50;;;;;;5048834;28;20098;-90
2023/01/02 10:27:31;;;;;;;;;;;17.20;98.60;;;;;;5049856;28;20217;-90
2023/01/02 10:30:00;;;;;;;;;;;17.20;98.70;;;;;;5043929;28;19916;-90
2023/01/02 10:32:26;;;;;;;;;;;17.10;98.80;;;;;;5051011;28;20318;-90
2023/01/02 10:34:58;;;;;;;;;;;17.10;98.80;;;;;;5050257;28;19908;-90
2023/01/02 10:37:24;;;;;;;;;;;17.10;98.90;;;;;;5050517;28;19915;-90
2023/01/02 10:39:50;;;;;;;;;;;17.10;99.00;;;;;;5050140;28;20202;-90
2023/01/02 10:42:16;;;;;;;;;;;17.00;99.10;;;;;;5066371;28;19909;-90
2023/01/02 10:44:43;;;;;;;;;;;17.00;99.20;;;;;;5050777;28;19908;-90
2023/01/02 10:47:27;;;;;;;;;;;17.00;99.30;;;;;;5049601;28;20440;-90
2023/01/02 10:49:53;;;;;;;;;;;17.00;99.50;;;;;;5067870;28;20381;-90
2023/01/02 10:52:22;;;;;;;;;;;16.90;99.60;;;;;;5047342;28;19922;-90
2023/01/02 10:54:49;;;;;;;;;;;16.90;99.80;;;;;;5065560;28;19909;-90
2023/01/02 10:57:19;;;;;;;;;;;16.90;99.90;;;;;;5047517;28;19970;-89
2023/01/02 10:59:45;;;;;;;;;;;16.90;99.90;;;;;;5047033;28;19963;-90
2023/01/02 11:02:23;;;;;;;;;;;16.80;99.90;;;;;;5045569;28;19948;-90
2023/01/02 11:04:50;;;;;;;;;;;16.90;99.90;;;;;;5046072;28;19927;-90
2023/01/02 11:07:23;;;;;;;;;;;16.90;99.90;;;;;;5047057;28;19940;-90
2023/01/02 11:09:54;;;;;;;;;;;16.80;99.90;;;;;;5046381;28;19924;-90
2023/01/02 11:12:26;;;;;;;;;;;16.80;99.90;;;;;;5047208;28;20051;-90
2023/01/02 11:15:01;;;;;;;;;;;16.80;99.90;;;;;;5065427;28;20252;-90
2023/01/02 11:17:28;;;;;;;;;;;16.90;99.90;;;;;;5047414;28;20143;-90
2023/01/02 11:20:38;;;;;;;;;;;16.90;99.90;;;;;;5051736;28;20158;-90
2023/01/02 11:23:04;;;;;;;;;;;16.90;99.90;;;;;;4988567;28;19909;-90
2023/01/02 11:25:41;;;;;;;;;;;16.90;99.90;;;;;;5040450;28;20015;-90
2023/01/02 11:28:22;;;;;;;;;;;16.90;99.90;;;;;;5050096;28;20026;-90
2023/01/02 11:30:53;;;;;;;;;;;17.00;99.90;;;;;;5067859;28;19971;-90
2023/01/02 11:33:25;;;;;;;;;;;17.00;99.90;;;;;;5032872;28;19988;-90
2023/01/02 11:35:53;;;;;;;;;;;17.00;99.90;;;;;;5050582;28;20281;-89
2023/01/02 11:38:27;;;;;;;;;;;17.10;99.90;;;;;;5054229;28;20189;-90
2023/01/02 11:40:56;;;;;;;;;;;17.00;99.90;;;;;;5051110;28;20632;-90
2023/01/02 11:46:20;;;;;;;;;;;17.10;99.90;;;;;;5070971;28;20359;-89
2023/01/02 11:48:46;;;;;;;;;;;17.10;99.90;;;;;;5053020;28;19919;-89
2023/01/02 11:51:18;;;;;;;;;;;17.10;99.90;;;;;;5050881;28;19908;-89
2023/01/02 11:53:47;;;;;;;;;;;17.10;99.90;;;;;;5051944;28;20023;-89
2023/01/02 11:56:13;;;;;;;;;;;17.20;99.90;;;;;;5049145;28;20003;-90
2023/01/02 11:58:46;;;;;;;;;;;17.20;99.90;;;;;;5051138;28;19991;-90
2023/01/02 12:01:21;;;;;;;;;;;17.20;99.90;;;;;;5049786;28;19978;-90
2023/01/02 12:03:47;;;;;;;;;;;17.20;99.80;;;;;;5057911;28;20011;-90
2023/01/02 12:06:20;;;;;;;;;;;17.20;99.80;;;;;;5053711;28;20096;-90
2023/01/02 12:08:49;;;;;;;;;;;17.20;99.70;;;;;;5053694;28;20267;-90
2023/01/02 12:11:25;;;;;;;;;;;17.20;99.70;;;;;;5053433;28;20005;-90
2023/01/02 12:13:56;;;;;;;;;;;17.30;99.70;;;;;;5072723;28;20240;-89
2023/01/02 12:16:25;;;;;;;;;;;17.20;99.60;;;;;;5053181;28;20407;-89
2023/01/02 12:18:57;;;;;;;;;;;17.20;99.60;;;;;;5049887;28;19944;-90
2023/01/02 12:21:24;;;;;;;;;;;17.20;99.70;;;;;;5051357;28;19935;-90
2023/01/02 12:24:08;;;;;;;;;;;17.20;99.60;;;;;;5051067;28;19912;-89
2023/01/02 12:26:46;;;;;;;;;;;17.20;99.70;;;;;;5050907;28;19908;-89
2023/01/02 12:29:14;;;;;;;;;;;17.20;99.80;;;;;;5048661;28;19909;-90
2023/01/02 12:32:01;;;;;;;;;;;17.20;99.80;;;;;;5049034;28;20262;-89
2023/01/02 12:34:37;;;;;;;;;;;17.20;99.80;;;;;;5051377;28;19908;-89
2023/01/02 12:37:14;;;;;;;;;;;17.20;99.90;;;;;;5053516;28;19916;-89
2023/01/02 12:40:03;;;;;;;;;;;17.10;99.90;;;;;;5052096;28;20171;-89
2023/01/02 12:42:37;;;;;;;;;;;17.10;99.90;;;;;;5052011;28;20249;-89
2023/01/02 12:45:40;;;;;;;;;;;17.10;99.90;;;;;;5050979;28;20263;-89
2023/01/02 12:48:21;;;;;;;;;;;17.00;99.90;;;;;;5050079;28;20015;-90
2023/01/02 12:50:49;;;;;;;;;;;17.00;99.90;;;;;;5051417;28;20313;-90
2023/01/02 12:53:19;;;;;;;;;;;17.00;99.90;;;;;;5050742;28;20452;-88
2023/01/02 12:55:53;;;;;;;;;;;17.00;99.90;;;;;;5068609;28;20249;-88
2023/01/02 12:58:21;;;;;;;;;;;17.00;99.90;;;;;;5043903;28;19918;-88
2023/01/02 13:00:50;;;;;;;;;;;17.00;99.90;;;;;;5025684;28;20236;-88
2023/01/02 13:03:25;;;;;;;;;;;17.00;99.90;;;;;;5049797;28;20232;-88
2023/01/02 13:06:02;;;;;;;;;;;16.90;99.90;;;;;;5050677;28;19919;-87
2023/01/02 13:08:31;;;;;;;;;;;16.90;99.90;;;;;;5049368;28;20377;-88
2023/01/02 13:10:59;;;;;;;;;;;16.90;99.90;;;;;;5048414;28;19908;-88
2023/01/02 13:13:29;;;;;;;;;;;16.90;99.90;;;;;;5067717;28;19981;-88
2023/01/02 13:15:56;;;;;;;;;;;16.90;99.90;;;;;;5049709;28;20042;-88
2023/01/02 13:18:22;;;;;;;;;;;16.90;99.90;;;;;;5067902;28;19916;-88
2023/01/02 13:21:08;;;;;;;;;;;16.80;99.90;;;;;;5051034;28;19908;-88
2023/01/02 13:23:45;;;;;;;;;;;16.90;99.90;;;;;;5050081;28;19909;-88
2023/01/02 13:26:22;;;;;;;;;;;16.90;99.90;;;;;;5050509;28;19999;-87
2023/01/02 13:29:07;;;;;;;;;;;16.90;99.90;;;;;;5049611;28;19969;-87
2023/01/02 13:31:34;;;;;;;;;;;16.90;99.90;;;;;;5062321;28;19990;-88
2023/01/02 13:34:06;;;;;;;;;;;16.80;99.90;;;;;;5047117;28;20122;-88
2023/01/02 13:36:37;;;;;;;;;;;16.80;99.90;;;;;;5046414;28;20198;-88
2023/01/02 13:39:23;;;;;;;;;;;16.80;99.90;;;;;;5046994;28;19909;-88
2023/01/02 13:44:39;;;;;;;;;;;16.80;99.90;;;;;;5065278;28;19978;-88
2023/01/02 13:47:18;;;;;;;;;;;16.80;99.90;;;;;;5067298;28;20160;-88
2023/01/02 13:49:47;;;;;;;;;;;16.80;99.90;;;;;;5042411;28;19920;-88
2023/01/02 13:52:14;;;;;;;;;;;16.90;99.90;;;;;;5047998;28;20198;-88
2023/01/02 13:54:41;;;;;;;;;;;17.00;99.90;;;;;;5048595;28;20066;-88
2023/01/02 13:57:39;;;;;;;;;;;17.10;99.90;;;;;;5035198;28;20283;-88
2023/01/02 14:00:24;;;;;;;;;;;17.20;99.90;;;;;;5039562;28;20213;-88
2023/01/02 14:03:09;;;;;;;;;;;17.20;99.80;;;;;;5052905;28;19921;-88
2023/01/02 14:05:53;;;;;;;;;;;17.30;99.70;;;;;;5049346;28;20378;-88
2023/01/02 14:08:25;;;;;;;;;;;17.30;99.60;;;;;;5067706;28;19924;-88
2023/01/02 14:10:53;;;;;;;;;;;17.30;99.60;;;;;;5048812;28;20005;-87
2023/01/02 14:13:30;;;;;;;;;;;17.30;99.60;;;;;;5048191;28;19955;-88
2023/01/02 14:16:06;;;;;;;;;;;17.30;99.50;;;;;;5066719;28;19987;-87
2023/01/02 14:18:31;;;;;;;;;;;17.30;99.50;;;;;;5048753;28;19915;-87
2023/01/02 14:20:57;;;;;;;;;;;17.30;99.40;;;;;;5049165;28;19913;-88
2023/01/02 14:23:32;;;;;;;;;;;17.30;99.40;;;;;;5048310;28;19996;-88
2023/01/02 14:25:58;;;;;;;;;;;17.30;99.50;;;;;;5047919;28;20394;-88
2023/01/02 14:28:26;;;;;;;;;;;17.20;99.50;;;;;;5047776;28;19916;-88
2023/01/02 14:30:52;;;;;;;;;;;17.20;99.60;;;;;;5047361;28;19908;-88
2023/01/02 14:33:23;;;;;;;;;;;17.10;99.60;;;;;;5046581;28;20001;-88
2023/01/02 14:35:54;;;;;;;;;;;17.10;99.70;;;;;;5047039;28;19908;-88
2023/01/02 14:38:24;;;;;;;;;;;17.10;99.80;;;;;;5034288;28;20276;-88